Time;durP1;ratioP1;P1;durP2;ratioP2;P2;SDS_P1;SDS_P2;PMS_P1;PMS_P2;Temp;Humidity;BMP_temperature;BMP_pressure;BME280_temperature;BME280_humidity;BME280_pressure;Samples;Min_cycle;Max_cycle;Signal;HPM_P1;HPM_P2
2021/04/29 00:01:06;;;;;;;25.67;10.23;;;7.30;99.90;;;;;;5015259;28;20465;-76
2021/04/29 00:03:34;;;;;;;22.08;8.95;;;7.40;99.90;;;;;;5015036;28;20029;-76
2021/04/29 00:06:00;;;;;;;19.67;8.30;;;7.40;99.90;;;;;;5014725;28;20049;-76
2021/04/29 00:08:26;;;;;;;17.60;9.02;;;7.40;99.90;;;;;;5015196;28;20030;-76
2021/04/29 00:10:52;;;;;;;26.67;9.40;;;7.40;99.90;;;;;;5014333;28;20017;-76
2021/04/29 00:13:18;;;;;;;20.00;8.98;;;7.30;99.90;;;;;;5014658;28;20037;-76
2021/04/29 00:15:44;;;;;;;20.92;9.07;;;7.30;99.90;;;;;;5014525;28;20022;-76
2021/04/29 00:18:10;;;;;;;20.70;9.77;;;7.30;99.90;;;;;;5013857;28;20121;-76
2021/04/29 00:20:36;;;;;;;17.02;9.63;;;7.30;99.90;;;;;;5014987;28;20437;-76
2021/04/29 00:23:02;;;;;;;25.88;9.05;;;7.30;99.90;;;;;;5013352;28;20030;-76
2021/04/29 00:25:28;;;;;;;22.92;10.07;;;7.30;99.90;;;;;;5014235;28;20037;-76
2021/04/29 00:27:53;;;;;;;30.25;9.75;;;7.30;99.90;;;;;;5014569;28;20034;-76
2021/04/29 00:30:19;;;;;;;18.27;7.90;;;7.40;99.90;;;;;;5014786;28;20505;-76
2021/04/29 00:32:46;;;;;;;22.48;9.77;;;7.40;99.90;;;;;;5014032;28;20502;-76
2021/04/29 00:35:11;;;;;;;15.95;8.68;;;7.40;99.90;;;;;;5014072;28;20029;-76
2021/04/29 00:37:37;;;;;;;18.88;9.00;;;7.40;99.90;;;;;;5013245;28;20029;-77
2021/04/29 00:40:04;;;;;;;25.30;9.75;;;7.40;99.90;;;;;;5014480;28;20038;-76
2021/04/29 00:42:30;;;;;;;22.63;10.02;;;7.30;99.90;;;;;;5014265;28;20033;-76
2021/04/29 00:44:55;;;;;;;20.50;9.20;;;7.30;99.90;;;;;;5013875;28;20034;-76
2021/04/29 00:47:21;;;;;;;19.77;10.68;;;7.30;99.90;;;;;;5013291;28;20030;-76
2021/04/29 00:49:47;;;;;;;21.35;10.00;;;7.30;99.90;;;;;;5014308;28;20356;-76
2021/04/29 00:52:13;;;;;;;21.40;10.07;;;7.30;99.90;;;;;;5012427;28;20030;-76
2021/04/29 00:54:38;;;;;;;19.75;9.45;;;7.30;99.90;;;;;;5028851;28;20028;-76
2021/04/29 00:57:04;;;;;;;19.10;9.63;;;7.30;99.90;;;;;;5013752;28;20057;-76
2021/04/29 00:59:30;;;;;;;26.55;10.23;;;7.30;99.90;;;;;;5012720;28;20493;-76
2021/04/29 01:02:00;;;;;;;22.27;11.10;;;7.30;99.90;;;;;;5013966;28;20092;-76
2021/04/29 01:04:31;;;;;;;24.20;10.38;;;7.40;99.90;;;;;;5013569;28;20057;-76
2021/04/29 01:07:04;;;;;;;21.02;11.40;;;7.40;99.90;;;;;;5013812;28;20026;-76
2021/04/29 01:10:00;;;;;;;24.77;10.73;;;7.40;99.90;;;;;;5014083;28;20053;-76
2021/04/29 01:12:41;;;;;;;21.55;10.88;;;7.40;99.90;;;;;;5010820;28;20503;-76
2021/04/29 01:15:09;;;;;;;22.85;10.80;;;7.50;99.90;;;;;;4993760;28;20495;-76
2021/04/29 01:17:36;;;;;;;22.85;10.18;;;7.50;99.90;;;;;;5009410;28;20476;-76
2021/04/29 01:20:12;;;;;;;22.90;10.13;;;7.50;99.90;;;;;;4994238;28;20442;-76
2021/04/29 01:22:43;;;;;;;23.27;12.07;;;7.50;99.90;;;;;;5022455;28;20510;-76
2021/04/29 01:25:13;;;;;;;25.48;12.18;;;7.50;99.90;;;;;;5013079;28;20034;-76
2021/04/29 01:27:40;;;;;;;20.70;11.95;;;7.50;99.90;;;;;;5013283;28;20498;-76
2021/04/29 01:30:08;;;;;;;27.70;11.35;;;7.50;99.90;;;;;;5013699;28;20060;-76
2021/04/29 01:32:36;;;;;;;24.27;10.32;;;7.40;99.90;;;;;;5012870;28;20428;-76
2021/04/29 01:35:03;;;;;;;26.00;11.55;;;7.50;99.90;;;;;;5012883;28;20076;-76
2021/04/29 01:37:29;;;;;;;24.27;11.40;;;7.50;99.90;;;;;;5013473;28;20028;-76
2021/04/29 01:39:55;;;;;;;24.30;11.48;;;7.50;99.90;;;;;;5013303;28;20030;-76
2021/04/29 01:42:20;;;;;;;20.58;11.00;;;7.50;99.90;;;;;;5013278;28;20030;-76
2021/04/29 01:44:46;;;;;;;20.48;10.75;;;7.50;99.90;;;;;;5012504;28;20030;-76
2021/04/29 01:47:12;;;;;;;31.77;12.70;;;7.50;99.90;;;;;;5011701;28;20540;-76
2021/04/29 01:49:38;;;;;;;25.05;10.80;;;7.50;99.90;;;;;;5013293;28;20437;-76
2021/04/29 01:52:08;;;;;;;18.48;10.40;;;7.50;99.90;;;;;;5012220;28;20457;-76
2021/04/29 01:54:34;;;;;;;19.80;9.90;;;7.50;99.90;;;;;;5012655;28;20030;-76
2021/04/29 01:56:59;;;;;;;19.80;10.30;;;7.50;99.90;;;;;;5012848;28;20032;-76
2021/04/29 01:59:25;;;;;;;25.48;11.75;;;7.50;99.90;;;;;;5012784;28;20112;-76
2021/04/29 02:01:51;;;;;;;20.63;11.07;;;7.40;99.90;;;;;;5011524;28;20030;-76
2021/04/29 02:04:16;;;;;;;26.13;12.70;;;7.50;99.90;;;;;;5012411;28;20502;-76
2021/04/29 02:06:44;;;;;;;24.65;12.07;;;7.50;99.90;;;;;;5012750;28;20026;-76
2021/04/29 02:09:10;;;;;;;27.92;12.63;;;7.50;99.90;;;;;;5012903;28;20034;-76
2021/04/29 02:11:54;;;;;;;19.92;11.13;;;7.40;99.90;;;;;;5011073;28;20029;-76
2021/04/29 02:14:44;;;;;;;24.17;11.63;;;7.40;99.90;;;;;;5011586;28;20055;-76
2021/04/29 02:17:42;;;;;;;36.20;11.20;;;7.40;99.90;;;;;;5012845;28;20049;-76
2021/04/29 02:20:12;;;;;;;21.05;12.40;;;7.40;99.90;;;;;;5012553;28;20025;-76
2021/04/29 02:22:41;;;;;;;24.92;11.55;;;7.30;99.90;;;;;;5012465;28;20037;-76
2021/04/29 02:25:09;;;;;;;21.02;12.88;;;7.30;99.90;;;;;;5012005;28;20375;-76
2021/04/29 02:27:37;;;;;;;28.00;13.00;;;7.30;99.90;;;;;;5010796;28;20065;-76
2021/04/29 02:30:11;;;;;;;27.80;12.63;;;7.30;99.90;;;;;;5010606;28;20030;-76
2021/04/29 02:32:38;;;;;;;23.55;13.30;;;7.30;99.90;;;;;;5011850;28;20057;-76
2021/04/29 02:35:07;;;;;;;24.10;12.90;;;7.30;99.90;;;;;;5011679;28;20061;-76
2021/04/29 02:37:32;;;;;;;29.35;12.80;;;7.30;99.90;;;;;;5012463;28;20029;-76
2021/04/29 02:39:59;;;;;;;31.65;14.05;;;7.20;99.90;;;;;;5012128;28;20022;-76
2021/04/29 02:42:25;;;;;;;23.48;13.05;;;7.10;99.90;;;;;;5012136;28;20140;-76
2021/04/29 02:44:50;;;;;;;25.50;14.68;;;7.10;99.90;;;;;;5011476;28;20112;-76
2021/04/29 02:47:16;;;;;;;25.40;14.07;;;7.10;99.90;;;;;;5012241;28;20112;-76
2021/04/29 02:49:42;;;;;;;24.15;13.07;;;7.20;99.90;;;;;;5012216;28;20030;-76
2021/04/29 02:52:10;;;;;;;27.67;14.25;;;7.30;99.90;;;;;;5011329;28;20061;-76
2021/04/29 02:54:36;;;;;;;26.23;14.20;;;7.30;99.90;;;;;;5011394;28;20044;-76
2021/04/29 02:57:01;;;;;;;33.42;14.10;;;7.30;99.90;;;;;;5011896;28;20021;-76
2021/04/29 02:59:27;;;;;;;27.02;14.15;;;7.30;99.90;;;;;;5011929;28;20022;-76
2021/04/29 03:01:53;;;;;;;28.35;14.23;;;7.30;99.90;;;;;;5011775;28;20113;-77
2021/04/29 03:04:18;;;;;;;33.67;14.25;;;7.30;99.90;;;;;;5010164;28;20080;-76
2021/04/29 03:06:44;;;;;;;42.47;15.50;;;7.30;99.90;;;;;;5011126;28;20030;-76
2021/04/29 03:09:09;;;;;;;26.65;14.20;;;7.30;99.90;;;;;;5011980;28;20552;-77
2021/04/29 03:11:35;;;;;;;29.58;14.57;;;7.30;99.90;;;;;;5011064;28;20052;-76
2021/04/29 03:14:02;;;;;;;32.10;15.73;;;7.30;99.90;;;;;;5010996;28;20041;-77
2021/04/29 03:16:28;;;;;;;29.08;15.38;;;7.30;99.90;;;;;;5012053;28;20649;-76
2021/04/29 03:18:53;;;;;;;33.92;15.27;;;7.30;99.90;;;;;;5011898;28;20076;-76
2021/04/29 03:21:19;;;;;;;29.92;15.25;;;7.30;99.90;;;;;;5009742;28;20029;-76
2021/04/29 03:23:45;;;;;;;31.13;16.30;;;7.30;99.90;;;;;;5009881;28;20181;-76
2021/04/29 03:26:10;;;;;;;37.45;17.15;;;7.30;99.90;;;;;;5011587;28;20022;-76
2021/04/29 03:28:36;;;;;;;29.73;15.80;;;7.30;99.90;;;;;;5010545;28;20025;-76
2021/04/29 03:31:01;;;;;;;38.42;16.33;;;7.20;99.90;;;;;;5010503;28;20033;-76
2021/04/29 03:33:27;;;;;;;31.05;15.40;;;7.20;99.90;;;;;;5010947;28;20486;-76
2021/04/29 03:35:53;;;;;;;39.55;17.88;;;7.20;99.90;;;;;;5009892;28;20383;-76
2021/04/29 03:38:18;;;;;;;39.58;16.70;;;7.20;99.90;;;;;;4994139;28;20113;-75
2021/04/29 03:40:44;;;;;;;31.05;15.73;;;7.20;99.90;;;;;;5011256;28;20034;-76
2021/04/29 03:43:09;;;;;;;29.30;15.20;;;7.20;99.90;;;;;;5011611;28;20041;-76
2021/04/29 03:45:37;;;;;;;34.28;15.15;;;7.20;99.90;;;;;;5011030;28;20388;-76
2021/04/29 03:48:03;;;;;;;31.63;15.52;;;7.20;99.90;;;;;;5011530;28;20030;-76
2021/04/29 03:50:28;;;;;;;35.13;15.13;;;7.30;99.90;;;;;;5010299;28;20030;-76
2021/04/29 03:52:54;;;;;;;27.40;14.63;;;7.30;99.90;;;;;;5010771;28;20379;-76
2021/04/29 03:55:19;;;;;;;30.52;15.20;;;7.30;99.90;;;;;;5010934;28;20066;-76
2021/04/29 03:57:45;;;;;;;32.53;14.65;;;7.30;99.90;;;;;;5011245;28;20026;-76
2021/04/29 04:00:12;;;;;;;44.17;13.63;;;7.30;99.90;;;;;;5011451;28;20492;-76
2021/04/29 04:02:37;;;;;;;29.42;13.88;;;7.30;99.90;;;;;;5011212;28;20065;-77
2021/04/29 04:05:04;;;;;;;31.80;13.57;;;7.30;99.90;;;;;;5009620;28;20069;-76
2021/04/29 04:07:30;;;;;;;26.48;14.50;;;7.30;99.90;;;;;;5010554;28;20026;-76
2021/04/29 04:09:56;;;;;;;25.92;14.27;;;7.30;99.90;;;;;;5010006;28;20036;-76
2021/04/29 04:12:21;;;;;;;34.03;15.15;;;7.30;99.90;;;;;;5010725;28;20055;-76
2021/04/29 04:14:47;;;;;;;25.33;14.02;;;7.40;99.90;;;;;;5010490;28;20034;-76
2021/04/29 04:17:12;;;;;;;35.88;13.68;;;7.40;99.90;;;;;;5011397;28;20053;-76
2021/04/29 04:19:38;;;;;;;35.20;14.25;;;7.40;99.90;;;;;;5011311;28;20026;-76
2021/04/29 04:22:03;;;;;;;25.20;13.38;;;7.40;99.90;;;;;;5010964;28;20089;-76
2021/04/29 04:24:29;;;;;;;29.70;14.30;;;7.40;99.90;;;;;;5010556;28;20072;-76
2021/04/29 04:26:54;;;;;;;31.80;13.35;;;7.40;99.90;;;;;;5011024;28;20113;-76
2021/04/29 04:29:20;;;;;;;30.67;12.85;;;7.50;99.90;;;;;;5011263;28;20034;-76
2021/04/29 04:31:46;;;;;;;29.50;13.93;;;7.50;99.90;;;;;;5010485;28;20025;-76
2021/04/29 04:34:11;;;;;;;26.42;13.32;;;7.50;99.90;;;;;;5011892;28;20025;-76
2021/04/29 04:36:37;;;;;;;28.98;13.68;;;7.50;99.90;;;;;;5013421;28;20022;-76
2021/04/29 04:39:03;;;;;;;22.55;13.07;;;7.50;99.90;;;;;;5013445;28;20070;-76
2021/04/29 04:41:29;;;;;;;21.08;12.80;;;7.50;99.90;;;;;;5013984;28;20056;-76
2021/04/29 04:43:55;;;;;;;33.47;13.57;;;7.50;99.90;;;;;;5013908;28;20077;-76
2021/04/29 04:46:21;;;;;;;25.73;13.10;;;7.60;99.90;;;;;;5014545;28;20030;-76
2021/04/29 04:48:46;;;;;;;24.05;13.32;;;7.60;99.90;;;;;;5013314;28;20116;-76
2021/04/29 04:51:12;;;;;;;27.05;12.18;;;7.70;99.90;;;;;;5013686;28;20026;-75
2021/04/29 04:53:37;;;;;;;33.08;14.68;;;7.80;99.90;;;;;;5012916;28;20037;-76
2021/04/29 04:56:03;;;;;;;24.75;13.68;;;7.80;99.90;;;;;;5013699;28;20021;-76
2021/04/29 04:58:29;;;;;;;29.15;14.32;;;7.90;99.90;;;;;;5014330;28;20445;-76
2021/04/29 05:00:54;;;;;;;23.48;12.35;;;7.90;99.90;;;;;;5014203;28;20034;-76
2021/04/29 05:03:20;;;;;;;23.27;13.10;;;7.90;99.90;;;;;;5013995;28;20041;-76
2021/04/29 05:05:46;;;;;;;25.17;14.38;;;8.00;99.90;;;;;;5010831;28;20030;-76
2021/04/29 05:08:12;;;;;;;27.73;12.32;;;8.10;99.90;;;;;;5014091;28;20466;-76
2021/04/29 05:10:38;;;;;;;28.55;13.30;;;8.10;99.90;;;;;;5012487;28;20038;-76
2021/04/29 05:13:04;;;;;;;26.13;12.80;;;8.20;99.90;;;;;;5013241;28;20557;-76
2021/04/29 05:15:31;;;;;;;31.33;12.57;;;8.30;99.90;;;;;;5012146;28;20062;-76
2021/04/29 05:17:57;;;;;;;24.17;12.30;;;8.30;99.90;;;;;;5014015;28;20049;-76
2021/04/29 05:20:23;;;;;;;26.45;13.43;;;8.40;99.90;;;;;;5013527;28;20029;-76
2021/04/29 05:22:50;;;;;;;25.80;11.40;;;8.30;99.90;;;;;;5013649;28;20038;-76
2021/04/29 05:25:15;;;;;;;20.73;13.02;;;8.20;99.90;;;;;;5013219;28;20437;-76
2021/04/29 05:27:41;;;;;;;25.60;13.43;;;8.20;99.90;;;;;;5013513;28;20038;-76
2021/04/29 05:30:07;;;;;;;22.80;11.40;;;8.20;99.90;;;;;;5013621;28;20437;-76
2021/04/29 05:32:33;;;;;;;33.53;12.95;;;8.30;99.90;;;;;;5013590;28;20058;-76
2021/04/29 05:34:59;;;;;;;25.20;12.13;;;8.30;99.90;;;;;;5012843;28;20125;-76
2021/04/29 05:37:25;;;;;;;24.33;13.18;;;8.30;99.90;;;;;;5012666;28;20030;-76
2021/04/29 05:39:51;;;;;;;23.48;11.88;;;8.30;99.90;;;;;;5013354;28;20153;-76
2021/04/29 05:42:17;;;;;;;31.08;13.68;;;8.30;99.90;;;;;;5013437;28;20041;-76
2021/04/29 05:44:43;;;;;;;27.13;11.93;;;8.30;99.90;;;;;;5012539;28;20034;-76
2021/04/29 05:47:08;;;;;;;32.13;13.73;;;8.30;99.90;;;;;;5011789;28;20064;-76
2021/04/29 05:49:34;;;;;;;30.92;12.60;;;8.30;99.90;;;;;;5028446;28;20026;-76
2021/04/29 05:51:59;;;;;;;23.73;12.98;;;8.30;99.90;;;;;;5013353;28;20030;-76
2021/04/29 05:54:25;;;;;;;26.17;12.90;;;8.30;99.90;;;;;;5027871;28;20037;-77
2021/04/29 05:56:51;;;;;;;23.92;13.00;;;8.20;99.90;;;;;;5012261;28;20022;-76
2021/04/29 05:59:17;;;;;;;30.08;14.02;;;8.20;99.90;;;;;;5012932;28;20029;-76
2021/04/29 06:01:42;;;;;;;35.10;13.43;;;8.30;99.90;;;;;;5006732;28;20030;-76
2021/04/29 06:04:08;;;;;;;23.25;12.93;;;8.20;99.90;;;;;;4992516;28;20030;-76
2021/04/29 06:06:34;;;;;;;29.92;13.38;;;8.30;99.90;;;;;;5010947;28;20036;-76
2021/04/29 06:08:59;;;;;;;30.33;14.02;;;8.30;99.90;;;;;;5012873;28;20052;-76
2021/04/29 06:11:25;;;;;;;29.58;13.68;;;8.40;99.90;;;;;;5012469;28;20026;-76
2021/04/29 06:13:51;;;;;;;21.23;11.75;;;8.30;99.90;;;;;;5012063;28;20026;-76
2021/04/29 06:16:16;;;;;;;24.88;12.07;;;8.30;99.90;;;;;;5011472;28;20026;-76
2021/04/29 06:18:42;;;;;;;28.98;14.32;;;8.30;99.90;;;;;;5011886;28;20402;-76
2021/04/29 06:21:08;;;;;;;24.00;13.75;;;8.30;99.90;;;;;;5012587;28;20083;-76
2021/04/29 06:23:34;;;;;;;27.75;13.88;;;8.30;99.90;;;;;;5012633;28;20538;-76
2021/04/29 06:26:00;;;;;;;31.52;12.48;;;8.40;99.90;;;;;;5011812;28;20026;-76
2021/04/29 06:28:27;;;;;;;35.50;13.50;;;8.30;99.90;;;;;;5012270;28;20601;-76
2021/04/29 06:30:54;;;;;;;35.28;13.73;;;8.30;99.90;;;;;;5012329;28;20125;-76
2021/04/29 06:33:25;;;;;;;30.95;13.55;;;8.30;99.90;;;;;;5012364;28;20112;-76
2021/04/29 06:35:52;;;;;;;33.00;13.63;;;8.20;99.90;;;;;;5011920;28;20026;-76
2021/04/29 06:38:17;;;;;;;22.17;12.88;;;8.30;99.90;;;;;;5011725;28;20049;-76
2021/04/29 06:40:43;;;;;;;31.17;13.68;;;8.20;99.90;;;;;;5012011;28;20120;-76
2021/04/29 06:43:09;;;;;;;31.98;12.90;;;8.20;99.90;;;;;;5012117;28;20033;-76
2021/04/29 06:45:34;;;;;;;30.33;12.93;;;8.20;99.90;;;;;;5011590;28;20030;-76
2021/04/29 06:48:00;;;;;;;31.10;13.82;;;8.20;99.90;;;;;;5011893;28;20033;-76
2021/04/29 06:50:26;;;;;;;27.33;13.48;;;8.20;99.90;;;;;;5012187;28;20034;-76
2021/04/29 06:52:51;;;;;;;18.23;11.57;;;8.20;99.90;;;;;;5012129;28;20026;-76
2021/04/29 06:55:17;;;;;;;28.13;13.57;;;8.20;99.90;;;;;;5011462;28;20026;-76
2021/04/29 06:57:42;;;;;;;29.27;13.73;;;8.20;99.90;;;;;;5010713;28;20069;-76
2021/04/29 07:00:09;;;;;;;30.92;13.70;;;8.20;99.90;;;;;;5011721;28;20093;-76
2021/04/29 07:02:34;;;;;;;31.27;14.50;;;8.20;99.90;;;;;;5012060;28;20034;-76
2021/04/29 07:05:00;;;;;;;29.02;13.82;;;8.30;99.90;;;;;;5011374;28;20092;-76
2021/04/29 07:07:25;;;;;;;24.25;12.80;;;8.30;99.90;;;;;;5008539;28;20037;-76
2021/04/29 07:09:51;;;;;;;31.50;13.13;;;8.40;99.90;;;;;;5010429;28;20041;-76
2021/04/29 07:12:17;;;;;;;27.10;13.23;;;8.50;99.90;;;;;;5011603;28;20030;-76
2021/04/29 07:14:42;;;;;;;26.17;13.30;;;8.50;99.90;;;;;;5011185;28;20501;-76
2021/04/29 07:17:08;;;;;;;19.13;13.13;;;8.50;99.90;;;;;;5011162;28;20555;-76
2021/04/29 07:19:33;;;;;;;30.50;13.68;;;8.70;99.90;;;;;;5011830;28;20029;-75
2021/04/29 07:21:59;;;;;;;24.33;13.73;;;8.80;99.90;;;;;;5011919;28;20034;-76
2021/04/29 07:24:24;;;;;;;30.00;12.95;;;9.10;99.90;;;;;;5010957;28;20080;-77
2021/04/29 07:26:50;;;;;;;29.38;11.80;;;9.30;99.90;;;;;;5011537;28;20478;-76
2021/04/29 07:29:16;;;;;;;20.85;12.77;;;9.40;99.90;;;;;;5011325;28;20490;-76
2021/04/29 07:31:41;;;;;;;28.30;12.27;;;9.60;99.90;;;;;;5001206;28;20037;-76
2021/04/29 07:34:07;;;;;;;25.70;11.85;;;9.60;99.90;;;;;;5005004;28;20033;-75
2021/04/29 07:36:33;;;;;;;25.02;12.50;;;9.80;99.90;;;;;;4995707;28;20498;-75
2021/04/29 07:38:59;;;;;;;21.70;13.10;;;9.90;99.90;;;;;;4999198;28;20113;-75
2021/04/29 07:41:26;;;;;;;24.92;12.13;;;10.00;99.90;;;;;;5002654;28;20026;-76
2021/04/29 07:43:52;;;;;;;23.95;12.05;;;10.00;99.90;;;;;;5010945;28;20018;-76
2021/04/29 07:46:18;;;;;;;31.08;13.65;;;10.10;99.90;;;;;;5011586;28;20393;-76
2021/04/29 07:48:43;;;;;;;19.30;11.98;;;10.10;99.90;;;;;;5011254;28;20109;-76
2021/04/29 07:51:09;;;;;;;36.17;13.52;;;10.20;99.90;;;;;;5011288;28;20157;-76
2021/04/29 07:53:34;;;;;;;25.83;11.95;;;10.30;99.90;;;;;;5009906;28;20030;-76
2021/04/29 07:56:00;;;;;;;22.92;12.60;;;10.30;99.90;;;;;;5009034;28;20018;-76
2021/04/29 07:58:26;;;;;;;21.05;12.38;;;10.40;99.90;;;;;;5011333;28;20449;-76
2021/04/29 08:00:52;;;;;;;19.45;12.18;;;10.50;99.90;;;;;;5009951;28;20026;-77
2021/04/29 08:03:17;;;;;;;20.65;12.23;;;10.50;99.90;;;;;;5011392;28;20032;-77
2021/04/29 08:05:43;;;;;;;19.70;11.30;;;10.70;99.90;;;;;;5007762;28;20445;-77
2021/04/29 08:08:09;;;;;;;33.30;13.05;;;10.70;99.90;;;;;;5011022;28;20509;-77
2021/04/29 08:10:35;;;;;;;28.85;12.43;;;10.70;99.90;;;;;;5015153;28;20026;-76
2021/04/29 08:13:01;;;;;;;27.15;13.23;;;10.60;99.90;;;;;;5014975;28;20109;-77
2021/04/29 08:15:26;;;;;;;23.23;12.88;;;10.70;99.90;;;;;;5014420;28;20064;-77
2021/04/29 08:17:52;;;;;;;19.67;11.70;;;10.90;99.90;;;;;;5009633;28;20034;-77
2021/04/29 08:20:17;;;;;;;34.25;13.30;;;11.00;99.90;;;;;;5014677;28;20070;-77
2021/04/29 08:22:43;;;;;;;32.50;12.43;;;11.20;99.90;;;;;;5015001;28;20029;-77
2021/04/29 08:25:09;;;;;;;34.05;13.65;;;11.40;99.90;;;;;;5012585;28;20034;-76
2021/04/29 08:27:35;;;;;;;27.10;13.13;;;11.40;99.90;;;;;;5013992;28;20084;-76
2021/04/29 08:30:00;;;;;;;20.45;11.73;;;11.50;99.90;;;;;;5014264;28;20038;-76
2021/04/29 08:32:26;;;;;;;19.77;11.93;;;11.40;99.90;;;;;;5014490;28;20088;-76
2021/04/29 08:34:51;;;;;;;19.02;12.23;;;11.50;99.90;;;;;;5012355;28;20105;-76
2021/04/29 08:37:17;;;;;;;29.42;13.20;;;11.40;99.90;;;;;;5013338;28;20371;-76
2021/04/29 08:39:44;;;;;;;27.73;13.35;;;11.40;99.90;;;;;;5014375;28;20021;-76
2021/04/29 08:42:15;;;;;;;30.58;13.02;;;11.60;99.90;;;;;;5013365;28;20025;-76
2021/04/29 08:44:42;;;;;;;23.65;12.43;;;11.80;99.90;;;;;;5013913;28;20072;-76
2021/04/29 08:47:08;;;;;;;34.90;14.13;;;11.80;99.90;;;;;;5014749;28;20414;-76
2021/04/29 08:49:34;;;;;;;43.70;12.82;;;11.90;99.90;;;;;;5012997;28;20030;-76
2021/04/29 08:52:00;;;;;;;24.90;13.00;;;11.80;99.90;;;;;;5014328;28;20037;-76
2021/04/29 08:54:26;;;;;;;28.40;12.98;;;11.90;99.90;;;;;;5012267;28;20029;-76
2021/04/29 08:56:53;;;;;;;20.73;12.40;;;11.90;99.90;;;;;;5029520;28;20018;-76
2021/04/29 08:59:18;;;;;;;24.67;12.73;;;11.80;99.90;;;;;;5014287;28;20101;-76
2021/04/29 09:01:45;;;;;;;25.58;13.18;;;11.90;99.90;;;;;;5014181;28;20550;-76
2021/04/29 09:04:14;;;;;;;25.67;13.02;;;11.90;99.90;;;;;;5012376;28;20367;-77
2021/04/29 09:06:40;;;;;;;27.45;13.23;;;12.00;99.90;;;;;;5012771;28;20033;-77
2021/04/29 09:09:06;;;;;;;26.83;13.70;;;11.90;99.90;;;;;;5013798;28;20037;-77
2021/04/29 09:11:31;;;;;;;19.45;12.45;;;11.80;99.90;;;;;;5013799;28;20564;-77
2021/04/29 09:14:07;;;;;;;22.88;11.90;;;11.80;99.90;;;;;;5012085;28;20029;-77
2021/04/29 09:16:41;;;;;;;24.55;13.95;;;11.80;99.90;;;;;;5010389;28;20053;-75
2021/04/29 09:19:18;;;;;;;31.38;14.10;;;11.80;99.90;;;;;;5003432;28;20027;-75
2021/04/29 09:21:43;;;;;;;20.20;12.68;;;12.00;99.90;;;;;;4993148;28;20038;-75
2021/04/29 09:24:10;;;;;;;18.55;12.85;;;12.10;99.90;;;;;;4990686;28;20101;-75
2021/04/29 09:26:35;;;;;;;31.73;13.90;;;12.20;99.90;;;;;;4999165;28;20041;-77
2021/04/29 09:29:13;;;;;;;24.55;12.68;;;12.20;99.90;;;;;;5002271;28;20026;-75
2021/04/29 09:31:43;;;;;;;32.42;13.77;;;12.10;99.90;;;;;;5006977;28;20425;-75
2021/04/29 09:34:09;;;;;;;24.35;13.20;;;12.20;99.90;;;;;;4994050;28;20496;-76
2021/04/29 09:36:44;;;;;;;27.35;14.00;;;12.30;99.90;;;;;;4992886;28;20022;-77
2021/04/29 09:39:15;;;;;;;27.08;13.73;;;12.40;99.90;;;;;;5004533;28;20040;-77
2021/04/29 09:41:44;;;;;;;29.67;13.77;;;12.30;99.90;;;;;;4991255;28;20026;-77
2021/04/29 09:44:12;;;;;;;34.22;14.43;;;12.20;99.90;;;;;;4999379;28;20062;-76
2021/04/29 09:46:42;;;;;;;30.88;14.20;;;12.10;99.90;;;;;;4999570;28;20027;-76
2021/04/29 09:49:31;;;;;;;27.40;13.00;;;12.20;99.90;;;;;;5001071;28;20057;-76
2021/04/29 09:51:58;;;;;;;26.27;13.95;;;12.20;99.90;;;;;;4999876;28;20089;-76
2021/04/29 09:54:32;;;;;;;28.05;13.18;;;12.10;99.90;;;;;;4990094;28;20023;-76
2021/04/29 09:57:07;;;;;;;23.38;13.60;;;12.10;99.90;;;;;;5009321;28;20104;-76
2021/04/29 09:59:41;;;;;;;30.92;12.82;;;12.20;99.90;;;;;;5005574;28;20026;-76
2021/04/29 10:02:07;;;;;;;;;;;12.10;99.90;;;;;;5005022;28;20410;-76
2021/04/29 10:04:34;;;;;;;22.13;13.32;;;12.00;99.90;;;;;;4997449;28;19909;-76
2021/04/29 10:07:01;;;;;;;23.73;15.15;;;12.10;99.90;;;;;;4992712;28;20073;-76
2021/04/29 10:09:34;;;;;;;24.98;13.23;;;11.90;99.90;;;;;;4996862;28;20107;-77
2021/04/29 10:12:12;;;;;;;30.33;14.87;;;11.90;99.90;;;;;;4989881;28;20022;-77
2021/04/29 10:14:48;;;;;;;32.97;15.75;;;11.70;99.90;;;;;;4997185;28;20033;-77
2021/04/29 10:17:16;;;;;;;28.67;15.00;;;11.70;99.90;;;;;;4998525;28;20022;-77
2021/04/29 10:19:51;;;;;;;32.33;14.98;;;11.60;99.90;;;;;;5006993;28;20030;-76
2021/04/29 10:22:18;;;;;;;36.60;16.02;;;11.40;99.90;;;;;;5011399;28;20557;-76
2021/04/29 10:24:45;;;;;;;26.27;14.65;;;11.30;99.90;;;;;;5011971;28;20034;-77
2021/04/29 10:27:25;;;;;;;31.42;14.50;;;11.30;99.90;;;;;;5027687;28;20022;-77
2021/04/29 10:30:10;;;;;;;31.08;16.15;;;11.10;99.90;;;;;;5012401;28;20033;-77
2021/04/29 10:32:37;;;;;;;26.80;14.63;;;11.00;99.90;;;;;;5011614;28;20075;-77
2021/04/29 10:35:19;;;;;;;28.23;14.68;;;10.90;99.90;;;;;;5011421;28;20033;-77
2021/04/29 10:37:54;;;;;;;25.08;15.30;;;10.90;99.90;;;;;;5010690;28;20375;-77
2021/04/29 10:40:36;;;;;;;30.85;16.08;;;10.90;99.90;;;;;;5012350;28;20033;-77
2021/04/29 10:43:03;;;;;;;28.13;16.27;;;10.80;99.90;;;;;;5012388;28;20026;-77
2021/04/29 10:45:30;;;;;;;28.10;16.10;;;10.60;99.90;;;;;;5010954;28;20021;-77
2021/04/29 10:48:09;;;;;;;31.13;16.58;;;10.60;99.90;;;;;;5012255;28;20029;-77
2021/04/29 10:50:43;;;;;;;39.75;15.95;;;10.50;99.90;;;;;;5011696;28;20026;-77
2021/04/29 10:53:09;;;;;;;31.45;15.75;;;10.50;99.90;;;;;;5012171;28;20053;-77
2021/04/29 10:55:37;;;;;;;32.33;17.02;;;10.50;99.90;;;;;;5010900;28;20053;-77
2021/04/29 10:58:05;;;;;;;34.78;16.13;;;10.60;99.90;;;;;;5010732;28;20026;-77
2021/04/29 11:00:34;;;;;;;29.60;15.07;;;10.50;99.90;;;;;;5012063;28;20026;-77
2021/04/29 11:03:00;;;;;;;30.33;17.42;;;10.60;99.90;;;;;;5012114;28;20069;-77
2021/04/29 11:05:27;;;;;;;28.50;15.98;;;10.80;99.90;;;;;;5010724;28;20041;-77
2021/04/29 11:07:53;;;;;;;27.60;15.57;;;10.70;99.90;;;;;;5011980;28;20188;-77
2021/04/29 11:10:22;;;;;;;28.33;16.33;;;10.70;99.90;;;;;;5011721;28;20049;-77
2021/04/29 11:12:49;;;;;;;23.17;15.32;;;10.60;99.90;;;;;;5011840;28;20034;-76
2021/04/29 11:15:18;;;;;;;34.42;16.77;;;10.50;99.90;;;;;;5011211;28;20486;-77
2021/04/29 11:17:44;;;;;;;36.70;18.05;;;10.20;99.90;;;;;;5011750;28;20109;-77
2021/04/29 11:20:10;;;;;;;43.15;17.30;;;10.10;99.90;;;;;;5010229;28;20108;-77
2021/04/29 11:22:37;;;;;;;30.85;16.25;;;10.00;99.90;;;;;;5010485;28;20581;-77
2021/04/29 11:25:10;;;;;;;32.05;16.00;;;9.90;99.90;;;;;;5010396;28;20486;-76
2021/04/29 11:27:39;;;;;;;33.08;16.30;;;9.90;99.90;;;;;;5011726;28;20425;-77
2021/04/29 11:30:14;;;;;;;32.45;18.27;;;9.90;99.90;;;;;;5011508;28;20033;-77
2021/04/29 11:32:51;;;;;;;31.30;17.55;;;9.90;99.90;;;;;;5010565;28;20029;-77
2021/04/29 11:35:21;;;;;;;30.15;17.23;;;9.90;99.90;;;;;;5010733;28;20048;-77
2021/04/29 11:37:46;;;;;;;33.55;18.05;;;9.80;99.90;;;;;;5011760;28;20026;-77
2021/04/29 11:40:14;;;;;;;30.25;16.90;;;9.80;99.90;;;;;;5011448;28;20076;-77
2021/04/29 11:42:43;;;;;;;37.95;16.42;;;9.80;99.90;;;;;;5012251;28;20030;-77
2021/04/29 11:45:29;;;;;;;31.58;17.52;;;9.80;99.90;;;;;;5014442;28;20069;-77
2021/04/29 11:48:09;;;;;;;31.65;16.23;;;9.80;99.90;;;;;;5015350;28;20030;-77
2021/04/29 11:50:37;;;;;;;31.08;17.10;;;9.70;99.90;;;;;;5015192;28;20034;-77
2021/04/29 11:53:07;;;;;;;27.23;16.45;;;9.60;99.90;;;;;;5014216;28;20084;-77
2021/04/29 11:55:34;;;;;;;31.92;19.00;;;9.50;99.90;;;;;;5013336;28;20026;-77
2021/04/29 11:58:08;;;;;;;35.55;19.77;;;9.50;99.90;;;;;;5015504;28;20029;-77
2021/04/29 12:00:37;;;;;;;35.22;19.10;;;9.50;99.90;;;;;;5015254;28;20053;-77
2021/04/29 12:03:07;;;;;;;36.58;17.27;;;9.30;99.90;;;;;;5015326;28;20490;-77
2021/04/29 12:05:52;;;;;;;31.75;18.20;;;9.20;99.90;;;;;;5014028;28;20108;-77
2021/04/29 12:08:20;;;;;;;35.25;19.48;;;9.20;99.90;;;;;;5015342;28;20054;-77
2021/04/29 12:10:57;;;;;;;30.20;20.08;;;9.20;99.90;;;;;;5013288;28;20757;-77
2021/04/29 12:13:32;;;;;;;30.15;18.25;;;9.30;99.90;;;;;;5015118;28;20026;-77
2021/04/29 12:16:00;;;;;;;34.53;18.58;;;9.30;99.90;;;;;;5014753;28;20018;-77
2021/04/29 12:18:26;;;;;;;28.42;18.27;;;9.30;99.90;;;;;;5015122;28;20113;-77
2021/04/29 12:20:52;;;;;;;34.55;18.75;;;9.40;99.90;;;;;;5017333;28;20026;-77
2021/04/29 12:23:20;;;;;;;32.67;17.77;;;9.30;99.90;;;;;;5014850;28;20017;-77
2021/04/29 12:25:59;;;;;;;42.40;18.08;;;9.30;99.90;;;;;;5014302;28;20029;-77
2021/04/29 12:28:37;;;;;;;33.33;18.73;;;9.30;99.90;;;;;;5015043;28;20025;-77
2021/04/29 12:31:18;;;;;;;37.03;18.90;;;9.40;99.90;;;;;;5013996;28;20030;-77
2021/04/29 12:34:06;;;;;;;30.27;17.77;;;9.40;99.90;;;;;;5013642;28;20034;-77
2021/04/29 12:36:47;;;;;;;39.00;19.30;;;9.40;99.90;;;;;;4995248;28;20105;-77
2021/04/29 12:39:14;;;;;;;35.33;20.77;;;9.40;99.90;;;;;;5010286;28;20026;-77